createdAt,value
2018-12-14T00:04:42.840Z,6.57
2018-12-14T00:09:50.938Z,11.23
2018-12-14T00:15:03.242Z,10.57
2018-12-14T00:20:09.792Z,8.07
2018-12-14T00:25:15.699Z,12.93
2018-12-14T00:30:21.812Z,16.03
2018-12-14T00:35:36.008Z,13.53
2018-12-14T00:40:41.851Z,13.47
2018-12-14T00:45:56.275Z,20.23
2018-12-14T00:51:07.715Z,21.53
2018-12-14T00:56:14.496Z,26.00
2018-12-14T01:01:26.560Z,10.97
2018-12-14T01:06:32.886Z,16.83
2018-12-14T01:11:38.699Z,8.27
2018-12-14T01:16:44.706Z,15.13
2018-12-14T01:21:52.308Z,18.27
2018-12-14T01:27:00.899Z,5.77
2018-12-14T01:32:08.724Z,10.15
2018-12-14T01:37:14.562Z,6.60
2018-12-14T01:42:21.483Z,5.73
2018-12-14T01:47:28.317Z,12.67
2018-12-14T01:52:36.188Z,12.50
2018-12-14T01:57:44.002Z,14.40
2018-12-14T02:02:49.804Z,10.20
2018-12-14T02:07:59.510Z,15.43
2018-12-14T02:13:07.809Z,12.80
2018-12-14T02:18:14.683Z,11.40
2018-12-14T02:23:39.731Z,11.93
2018-12-14T02:28:49.094Z,12.40
2018-12-14T02:33:56.058Z,15.40
2018-12-14T02:44:18.064Z,10.47
2018-12-14T02:49:25.093Z,10.00
2018-12-14T02:54:32.922Z,13.57
2018-12-14T02:59:38.989Z,7.93
2018-12-14T03:04:45.059Z,7.30
2018-12-14T03:09:50.855Z,7.10
2018-12-14T03:14:57.788Z,5.70
2018-12-14T03:20:07.561Z,9.13
2018-12-14T03:25:16.499Z,9.30
2018-12-14T03:30:23.090Z,6.90
2018-12-14T03:35:32.450Z,6.40
2018-12-14T03:40:40.462Z,7.33
2018-12-14T03:45:46.255Z,7.63
2018-12-14T03:50:52.071Z,12.67
2018-12-14T03:55:58.898Z,8.70
2018-12-14T04:01:05.437Z,10.43
2018-12-14T04:06:11.136Z,23.27
2018-12-14T04:11:16.967Z,20.60
2018-12-14T04:16:31.606Z,13.60
2018-12-14T04:21:40.990Z,20.10
2018-12-14T04:26:51.207Z,15.53
2018-12-14T04:31:56.975Z,12.67
2018-12-14T04:37:07.084Z,17.90
2018-12-14T04:42:13.573Z,10.00
2018-12-14T04:47:19.555Z,12.27
2018-12-14T04:52:29.621Z,19.93
2018-12-14T04:57:35.526Z,16.85
2018-12-14T05:02:41.572Z,21.20
2018-12-14T05:07:47.393Z,14.23
2018-12-14T05:12:56.170Z,22.17
2018-12-14T05:18:05.324Z,27.37
2018-12-14T05:23:11.124Z,14.63
2018-12-14T05:28:17.927Z,15.05
2018-12-14T05:33:23.743Z,10.93
2018-12-14T05:38:30.576Z,18.40
2018-12-14T05:43:40.179Z,19.93
2018-12-14T05:48:47.352Z,7.90
2018-12-14T05:53:53.732Z,19.20
2018-12-14T05:58:59.900Z,23.67
2018-12-14T06:04:06.141Z,30.40
2018-12-14T06:09:12.467Z,34.07
2018-12-14T06:14:18.386Z,35.30
2018-12-14T06:19:25.648Z,29.97
2018-12-14T06:24:32.910Z,41.17
2018-12-14T06:29:38.713Z,47.07
2018-12-14T06:34:44.554Z,42.60
2018-12-14T06:39:50.448Z,37.80
2018-12-14T06:44:57.467Z,29.80
2018-12-14T06:50:04.433Z,22.97
2018-12-14T06:55:10.256Z,21.10
2018-12-14T07:00:17.986Z,26.55
2018-12-14T07:05:23.778Z,28.33
2018-12-14T07:10:30.557Z,25.87
2018-12-14T07:15:36.602Z,35.80
2018-12-14T07:20:43.650Z,36.33
2018-12-14T07:25:51.443Z,35.07
2018-12-14T07:30:58.778Z,22.90
2018-12-14T07:36:04.707Z,25.00
2018-12-14T07:41:13.496Z,22.70
2018-12-14T07:46:20.586Z,26.33
2018-12-14T07:51:26.472Z,18.73
2018-12-14T07:56:36.674Z,16.93
2018-12-14T08:01:43.440Z,13.60
2018-12-14T08:06:50.534Z,10.97
2018-12-14T08:12:01.941Z,10.97
2018-12-14T08:17:08.101Z,11.47
2018-12-14T08:22:14.008Z,12.27
2018-12-14T08:27:19.907Z,12.67
2018-12-14T08:32:25.699Z,12.77
2018-12-14T08:37:31.566Z,11.37
2018-12-14T08:42:42.063Z,11.73
2018-12-14T08:47:49.213Z,11.23
2018-12-14T08:52:56.056Z,11.63
2018-12-14T08:58:02.837Z,10.13
2018-12-14T09:03:09.946Z,10.53
2018-12-14T09:08:15.934Z,9.35
2018-12-14T09:13:24.156Z,10.97
2018-12-14T09:18:30.334Z,11.17
2018-12-14T09:23:40.413Z,10.17
2018-12-14T09:28:50.101Z,14.68
2018-12-14T09:33:55.877Z,12.33
2018-12-14T09:39:01.670Z,11.80
2018-12-14T09:44:12.302Z,11.23
2018-12-14T09:49:24.325Z,11.63
2018-12-14T09:54:30.243Z,11.47
2018-12-14T09:59:36.196Z,12.37
2018-12-14T10:04:43.352Z,12.10
2018-12-14T10:09:49.247Z,12.60
2018-12-14T10:14:55.932Z,13.50
2018-12-14T10:20:01.753Z,15.20
2018-12-14T10:25:08.758Z,14.50
2018-12-14T10:30:15.988Z,15.35
2018-12-14T10:35:21.816Z,16.62
2018-12-14T10:40:28.664Z,15.58
2018-12-14T10:45:36.879Z,16.33
2018-12-14T10:50:42.753Z,17.53
2018-12-14T10:55:49.635Z,17.43
2018-12-14T11:01:00.790Z,16.43
2018-12-14T11:06:06.678Z,15.07
2018-12-14T11:11:13.678Z,14.18
2018-12-14T11:16:19.588Z,13.10
2018-12-14T11:21:25.774Z,12.83
2018-12-14T11:26:32.940Z,12.53
2018-12-14T11:31:39.227Z,14.10
2018-12-14T11:36:45.032Z,15.47
2018-12-14T11:41:51.167Z,16.10
2018-12-14T11:46:57.525Z,15.20
2018-12-14T11:52:05.914Z,13.30
2018-12-14T11:57:12.826Z,13.27
2018-12-14T12:02:18.716Z,14.43
2018-12-14T12:07:24.499Z,15.93
2018-12-14T12:12:30.439Z,16.50
2018-12-14T12:17:38.701Z,18.20
2018-12-14T12:22:46.483Z,17.30
2018-12-14T12:27:53.672Z,19.37
2018-12-14T12:32:59.677Z,19.00
2018-12-14T12:38:05.464Z,18.60
2018-12-14T12:43:18.974Z,24.17
2018-12-14T12:48:24.940Z,28.43
2018-12-14T12:53:31.732Z,23.20
2018-12-14T12:58:39.971Z,20.80
2018-12-14T13:03:47.145Z,19.07
2018-12-14T13:08:53.128Z,14.03
2018-12-14T13:13:59.894Z,13.70
2018-12-14T13:19:05.712Z,15.43
2018-12-14T13:24:11.491Z,14.63
2018-12-14T13:29:18.782Z,15.97
2018-12-14T13:34:26.856Z,14.57
2018-12-14T13:39:33.985Z,15.27
2018-12-14T13:44:46.363Z,14.43
2018-12-14T13:49:50.231Z,16.10
2018-12-14T13:54:59.628Z,14.67
2018-12-14T14:00:06.944Z,16.67
2018-12-14T14:05:14.624Z,18.00
2018-12-14T14:10:20.476Z,16.87
2018-12-14T14:15:27.675Z,15.93
2018-12-14T14:20:33.588Z,18.03
2018-12-14T14:25:39.576Z,16.80
2018-12-14T14:30:46.612Z,17.23
2018-12-14T14:35:52.470Z,17.63
2018-12-14T14:40:58.318Z,16.43
2018-12-14T14:46:04.230Z,16.20
2018-12-14T14:51:10.548Z,17.10
2018-12-14T14:56:18.266Z,17.82
2018-12-14T15:01:27.086Z,17.27
2018-12-14T15:06:33.925Z,15.63
2018-12-14T15:11:42.859Z,16.20
2018-12-14T15:16:48.936Z,16.60
2018-12-14T15:21:54.941Z,16.53
2018-12-14T15:27:01.956Z,16.43
2018-12-14T15:32:12.972Z,17.40
2018-12-14T15:37:24.832Z,19.33
2018-12-14T15:42:30.834Z,17.93
2018-12-14T15:47:36.861Z,18.03
2018-12-14T15:52:42.633Z,16.90
2018-12-14T15:57:49.379Z,15.33
2018-12-14T16:02:55.969Z,19.17
2018-12-14T16:08:03.569Z,15.87
2018-12-14T16:13:13.866Z,17.30
2018-12-14T16:18:20.051Z,16.03
2018-12-14T16:23:25.928Z,16.00
2018-12-14T16:28:31.840Z,16.17
2018-12-14T16:33:51.712Z,17.60
2018-12-14T16:38:58.483Z,16.33
2018-12-14T16:44:07.650Z,16.83
2018-12-14T16:49:13.584Z,16.97
2018-12-14T16:54:20.404Z,16.97
2018-12-14T16:59:27.388Z,16.90
2018-12-14T17:04:39.261Z,16.40
2018-12-14T17:09:46.313Z,16.53
2018-12-14T17:14:53.496Z,15.73
2018-12-14T17:20:03.183Z,15.57
2018-12-14T17:25:10.233Z,15.83
2018-12-14T17:30:16.430Z,16.83
2018-12-14T17:35:23.513Z,15.50
2018-12-14T17:40:31.813Z,15.03
2018-12-14T17:45:41.881Z,16.53
2018-12-14T17:50:48.746Z,17.00
2018-12-14T17:55:55.905Z,18.30
2018-12-14T18:01:03.493Z,17.93
2018-12-14T18:06:10.363Z,17.87
2018-12-14T18:11:18.135Z,17.52
2018-12-14T18:16:24.126Z,18.87
2018-12-14T18:21:30.135Z,17.57
2018-12-14T18:26:37.038Z,17.10
2018-12-14T18:31:42.900Z,21.00
2018-12-14T18:36:48.733Z,19.67
2018-12-14T18:41:56.500Z,18.53
2018-12-14T18:47:05.310Z,19.77
2018-12-14T18:52:11.336Z,20.70
2018-12-14T18:57:19.084Z,20.97
2018-12-14T19:02:25.595Z,21.00
2018-12-14T19:07:34.003Z,19.93
2018-12-14T19:12:39.999Z,19.33
2018-12-14T19:17:46.433Z,19.05
2018-12-14T19:22:52.421Z,20.10
2018-12-14T19:27:58.552Z,20.53
2018-12-14T19:33:07.525Z,20.47
2018-12-14T19:38:14.224Z,20.45
2018-12-14T19:43:20.105Z,21.17
2018-12-14T19:48:25.946Z,21.53
2018-12-14T19:53:32.768Z,23.07
2018-12-14T19:58:39.650Z,21.77
2018-12-14T20:03:59.219Z,23.30
2018-12-14T20:09:08.506Z,21.93
2018-12-14T20:14:15.998Z,22.17
2018-12-14T20:19:23.827Z,23.13
2018-12-14T20:24:32.648Z,24.37
2018-12-14T20:29:38.454Z,22.00
2018-12-14T20:34:45.595Z,22.60
2018-12-14T20:39:51.505Z,22.80
2018-12-14T20:44:58.657Z,23.17
2018-12-14T20:50:05.564Z,22.70
2018-12-14T20:55:11.531Z,25.60
2018-12-14T21:00:19.088Z,21.87
2018-12-14T21:05:24.906Z,22.05
2018-12-14T21:10:31.947Z,21.60
2018-12-14T21:15:37.869Z,21.50
2018-12-14T21:20:45.636Z,22.07
2018-12-14T21:25:52.551Z,24.63
2018-12-14T21:30:58.418Z,22.43
2018-12-14T21:36:05.834Z,24.23
2018-12-14T21:41:14.182Z,24.85
2018-12-14T21:46:20.000Z,26.57
2018-12-14T21:51:26.831Z,32.03
2018-12-14T21:56:34.357Z,26.37
2018-12-14T22:01:44.481Z,23.60
2018-12-14T22:06:52.294Z,24.63
2018-12-14T22:11:59.212Z,24.20
2018-12-14T22:17:05.598Z,25.27
2018-12-14T22:22:12.256Z,25.95
2018-12-14T22:27:25.917Z,25.20
2018-12-14T22:32:32.871Z,30.87
2018-12-14T22:37:40.040Z,20.47
2018-12-14T22:42:48.175Z,20.97
2018-12-14T22:47:54.141Z,35.77
2018-12-14T22:52:59.935Z,28.27
2018-12-14T22:58:05.883Z,22.57
2018-12-14T23:03:12.784Z,19.53
2018-12-14T23:08:18.591Z,22.93
2018-12-14T23:13:24.371Z,17.50
2018-12-14T23:18:30.152Z,15.67
2018-12-14T23:23:38.343Z,17.00
2018-12-14T23:28:46.700Z,16.93
2018-12-14T23:33:53.506Z,18.33
2018-12-14T23:39:01.387Z,18.33
2018-12-14T23:44:09.942Z,16.10
2018-12-14T23:49:15.744Z,16.90
2018-12-14T23:54:21.569Z,17.33
2018-12-14T23:59:28.355Z,17.97
